Time;durP1;ratioP1;P1;durP2;ratioP2;P2;SDS_P1;SDS_P2;PMS_P1;PMS_P2;Temp;Humidity;BMP_temperature;BMP_pressure;BME280_temperature;BME280_humidity;BME280_pressure;Samples;Min_cycle;Max_cycle;Signal;HPM_P1;HPM_P2
2022/10/29 07:09:24;;;;;;;14.50;3.78;;;13.90;99.90;;;;;;4875406;29;20042;-81
2022/10/29 07:11:51;;;;;;;12.75;3.63;;;13.90;99.90;;;;;;4879892;29;20121;-82
2022/10/29 07:14:17;;;;;;;11.18;4.68;;;13.90;99.90;;;;;;4870956;29;20053;-81
2022/10/29 07:16:45;;;;;;;13.27;4.57;;;13.90;99.90;;;;;;4863755;29;20053;-82
2022/10/29 07:19:11;;;;;;;9.48;4.18;;;13.90;99.90;;;;;;4844535;29;20060;-82
2022/10/29 07:21:38;;;;;;;15.98;4.78;;;14.00;99.90;;;;;;4842475;29;20478;-83
2022/10/29 07:24:05;;;;;;;13.57;4.53;;;13.90;99.90;;;;;;4832672;29;20141;-82
2022/10/29 07:26:32;;;;;;;8.80;3.58;;;13.90;99.90;;;;;;4831735;29;20054;-83
2022/10/29 07:28:59;;;;;;;16.20;6.70;;;14.00;99.90;;;;;;4845775;29;20467;-82
2022/10/29 07:31:27;;;;;;;15.98;7.65;;;14.00;99.90;;;;;;4838799;29;20141;-83
2022/10/29 07:33:54;;;;;;;15.90;5.55;;;14.00;99.90;;;;;;4842660;29;20415;-82
2022/10/29 07:36:21;;;;;;;10.27;5.60;;;14.00;99.90;;;;;;4830100;29;20547;-80
2022/10/29 07:38:48;;;;;;;14.55;4.43;;;14.00;99.90;;;;;;4840450;29;20042;-81
2022/10/29 07:41:14;;;;;;;14.95;4.63;;;14.10;99.90;;;;;;4830903;29;20057;-82
2022/10/29 07:43:41;;;;;;;8.80;4.22;;;14.10;99.90;;;;;;4842177;29;20145;-82
2022/10/29 07:46:08;;;;;;;15.88;5.50;;;14.10;99.90;;;;;;4845341;29;20121;-80
2022/10/29 07:48:35;;;;;;;11.50;4.93;;;14.10;99.90;;;;;;4832392;29;20074;-81
2022/10/29 07:51:01;;;;;;;12.35;4.47;;;14.20;99.90;;;;;;4832167;29;20149;-79
2022/10/29 07:53:30;;;;;;;13.10;5.03;;;14.20;99.90;;;;;;4846007;29;20126;-81
2022/10/29 07:55:57;;;;;;;14.85;4.28;;;14.20;99.90;;;;;;4850674;29;20081;-80
2022/10/29 07:58:25;;;;;;;11.70;4.28;;;14.30;99.90;;;;;;4850904;29;20050;-81
2022/10/29 08:00:52;;;;;;;20.38;6.38;;;14.30;99.90;;;;;;4846271;29;20129;-81
2022/10/29 08:03:20;;;;;;;12.00;6.30;;;14.40;99.90;;;;;;4843696;29;20058;-82
2022/10/29 08:05:48;;;;;;;14.25;6.40;;;14.40;99.90;;;;;;4839879;29;20086;-82
2022/10/29 08:08:22;;;;;;;13.45;5.68;;;14.40;99.90;;;;;;4845808;29;20061;-81
2022/10/29 08:10:49;;;;;;;18.02;5.32;;;14.50;99.90;;;;;;4844173;29;20077;-82
2022/10/29 08:13:15;;;;;;;14.90;4.80;;;14.50;99.90;;;;;;4847512;29;20050;-82
2022/10/29 08:15:45;;;;;;;13.88;4.85;;;14.50;99.90;;;;;;4840856;29;20046;-82
2022/10/29 08:18:16;;;;;;;15.10;5.55;;;14.60;99.90;;;;;;4847982;29;20360;-84
2022/10/29 08:20:43;;;;;;;15.20;4.45;;;14.60;99.90;;;;;;4849115;29;20125;-85
2022/10/29 08:23:11;;;;;;;11.15;4.85;;;14.70;99.90;;;;;;4849676;29;20133;-85
2022/10/29 08:25:40;;;;;;;9.38;4.25;;;14.70;99.90;;;;;;4852371;29;20069;-84
2022/10/29 08:28:09;;;;;;;24.48;5.97;;;14.80;99.90;;;;;;4852884;29;20046;-84
2022/10/29 08:30:36;;;;;;;14.60;6.00;;;14.80;99.90;;;;;;4846763;29;20054;-84
2022/10/29 08:33:04;;;;;;;21.45;7.60;;;14.80;99.90;;;;;;4837354;29;20178;-84
2022/10/29 08:35:31;;;;;;;17.08;6.30;;;14.90;99.90;;;;;;4849020;29;20148;-83
2022/10/29 08:37:58;;;;;;;16.85;5.28;;;15.00;99.90;;;;;;4835284;29;20089;-83
2022/10/29 08:40:29;;;;;;;15.55;5.97;;;15.00;99.90;;;;;;4847488;29;20090;-82
2022/10/29 08:43:17;;;;;;;12.38;5.88;;;15.00;99.90;;;;;;4844331;29;20077;-83
2022/10/29 08:45:48;;;;;;;13.90;5.18;;;15.00;99.90;;;;;;4821034;29;20054;-83
2022/10/29 08:48:26;;;;;;;14.20;5.20;;;15.10;99.90;;;;;;4847137;29;20545;-83
2022/10/29 08:51:08;;;;;;;12.10;5.03;;;15.10;99.90;;;;;;4845110;29;20058;-82
2022/10/29 08:53:50;;;;;;;14.35;5.13;;;15.20;99.90;;;;;;4842304;29;20045;-82
2022/10/29 08:56:41;;;;;;;18.38;5.13;;;15.30;99.90;;;;;;4843324;29;20077;-83
2022/10/29 08:59:23;;;;;;;12.27;5.47;;;15.30;99.90;;;;;;4874791;23;20045;-87
2022/10/29 09:01:52;;;;;;;11.38;5.40;;;15.30;99.90;;;;;;4875148;29;20528;-88
2022/10/29 09:04:24;;;;;;;12.30;5.05;;;15.40;99.90;;;;;;4889058;29;20053;-87
2022/10/29 09:06:59;;;;;;;16.00;5.03;;;15.40;99.90;;;;;;4880717;29;20073;-87
2022/10/29 09:09:55;;;;;;;11.93;5.43;;;15.40;99.90;;;;;;4885969;29;20136;-87
2022/10/29 09:12:40;;;;;;;15.68;4.97;;;15.50;99.90;;;;;;4832315;29;20052;-87
2022/10/29 09:15:25;;;;;;;15.07;5.32;;;15.50;99.90;;;;;;4853164;29;20167;-86
2022/10/29 09:18:01;;;;;;;10.20;5.28;;;15.60;99.90;;;;;;4856846;29;20504;-86
2022/10/29 09:20:50;;;;;;;16.75;4.78;;;15.60;99.90;;;;;;4851582;29;20050;-86
2022/10/29 09:23:54;;;;;;;15.05;5.63;;;15.70;99.90;;;;;;4862287;29;20121;-86
2022/10/29 09:26:53;;;;;;;15.20;5.30;;;15.70;99.90;;;;;;4853092;29;20069;-86
2022/10/29 09:29:36;;;;;;;13.77;4.78;;;15.80;99.90;;;;;;4852105;29;20132;-87
2022/10/29 09:32:07;;;;;;;13.18;4.70;;;15.90;99.90;;;;;;4851236;29;20058;-86
2022/10/29 09:34:51;;;;;;;15.23;4.80;;;15.90;99.90;;;;;;4854292;29;20053;-86
2022/10/29 09:37:42;;;;;;;20.73;5.93;;;16.00;99.90;;;;;;4845129;29;20486;-86
2022/10/29 09:40:18;;;;;;;23.30;6.95;;;16.10;99.90;;;;;;4856085;29;20057;-86
2022/10/29 09:42:46;;;;;;;16.90;5.43;;;16.10;99.90;;;;;;4866686;29;20049;-86
2022/10/29 09:45:17;;;;;;;9.27;4.43;;;16.20;99.90;;;;;;4856861;29;20121;-86
2022/10/29 09:47:57;;;;;;;15.90;5.43;;;16.20;99.90;;;;;;4855256;29;20046;-86
2022/10/29 09:50:34;;;;;;;18.13;5.00;;;16.30;99.90;;;;;;4863327;29;20060;-86
2022/10/29 09:53:01;;;;;;;13.48;4.68;;;16.30;99.90;;;;;;4851749;29;20057;-86
2022/10/29 09:55:38;;;;;;;10.13;4.72;;;16.40;99.90;;;;;;4851629;29;20050;-86
2022/10/29 09:58:05;;;;;;;17.48;4.57;;;16.40;99.90;;;;;;4866330;29;20512;-86
2022/10/29 10:00:34;;;;;;;13.07;4.88;;;16.50;99.90;;;;;;4862601;29;20046;-86
2022/10/29 10:03:09;;;;;;;17.40;4.97;;;16.60;99.90;;;;;;4878934;29;20057;-85
2022/10/29 10:06:00;;;;;;;13.27;4.60;;;16.60;99.90;;;;;;4880205;29;20065;-84
2022/10/29 10:08:28;;;;;;;17.17;4.03;;;16.60;99.90;;;;;;4881575;29;20099;-85
2022/10/29 10:10:54;;;;;;;9.55;3.95;;;16.70;99.90;;;;;;4882141;29;20101;-87
2022/10/29 10:13:25;;;;;;;12.38;4.28;;;16.80;99.90;;;;;;4876606;29;20092;-85
2022/10/29 10:16:04;;;;;;;16.52;4.10;;;16.80;99.90;;;;;;4870418;29;20058;-86
2022/10/29 10:18:31;;;;;;;9.10;3.35;;;16.90;99.90;;;;;;4857742;29;20109;-87
2022/10/29 10:20:59;;;;;;;11.30;3.90;;;17.00;99.90;;;;;;4867428;29;20135;-86
2022/10/29 10:23:39;;;;;;;11.45;3.90;;;17.10;99.90;;;;;;4856166;29;20056;-87
2022/10/29 10:26:44;;;;;;;13.20;4.03;;;17.10;99.90;;;;;;4852276;29;20480;-86
2022/10/29 10:29:22;;;;;;;12.43;3.78;;;17.20;99.90;;;;;;4854531;29;20057;-86
2022/10/29 10:31:55;;;;;;;13.00;3.33;;;17.20;99.90;;;;;;4854166;29;20049;-87
2022/10/29 10:34:34;;;;;;;11.93;3.53;;;17.30;99.90;;;;;;4854307;29;20054;-87
2022/10/29 10:37:13;;;;;;;11.30;3.75;;;17.40;99.90;;;;;;4858804;29;20505;-86
2022/10/29 10:39:59;;;;;;;18.85;4.63;;;17.50;99.90;;;;;;4858645;29;20054;-87
2022/10/29 10:42:29;;;;;;;12.30;4.28;;;17.60;99.90;;;;;;4852167;29;20077;-86
2022/10/29 10:45:00;;;;;;;12.57;4.88;;;17.60;99.90;;;;;;4856418;29;20053;-87
2022/10/29 10:47:32;;;;;;;15.50;4.50;;;17.70;99.90;;;;;;4857247;29;20200;-87
2022/10/29 10:50:27;;;;;;;9.05;3.60;;;17.70;99.90;;;;;;4853936;29;20053;-86
2022/10/29 10:52:57;;;;;;;12.77;3.97;;;17.80;99.90;;;;;;4847497;29;20484;-87
2022/10/29 10:55:29;;;;;;;9.52;4.22;;;17.70;99.90;;;;;;4867653;29;20053;-87
2022/10/29 10:58:11;;;;;;;13.80;4.35;;;17.80;99.90;;;;;;4864339;29;20053;-86
2022/10/29 11:01:16;;;;;;;12.20;4.50;;;17.90;99.90;;;;;;4854893;29;20053;-87
2022/10/29 11:03:47;;;;;;;19.55;4.40;;;18.00;99.90;;;;;;4853987;29;20046;-86
2022/10/29 11:06:21;;;;;;;;;;;18.10;99.90;;;;;;4849662;29;20414;-87
2022/10/29 11:08:53;;;;;;;13.25;5.25;;;18.10;99.90;;;;;;4854017;29;19932;-85
2022/10/29 11:11:26;;;;;;;14.63;4.32;;;18.20;99.90;;;;;;4853459;29;20065;-87
2022/10/29 11:13:59;;;;;;;12.57;4.20;;;18.30;99.90;;;;;;4862597;29;20448;-87
2022/10/29 11:16:37;;;;;;;8.43;3.35;;;18.30;99.90;;;;;;4856431;29;20093;-86
2022/10/29 11:19:22;;;;;;;15.30;5.38;;;18.30;99.90;;;;;;4857623;29;20050;-83
2022/10/29 11:22:02;;;;;;;10.48;4.00;;;18.50;99.90;;;;;;4852038;29;20045;-83
2022/10/29 11:24:43;;;;;;;10.15;3.90;;;18.50;99.90;;;;;;4850551;29;20056;-84
2022/10/29 11:27:28;;;;;;;;;;;18.60;99.90;;;;;;4870906;29;20141;-83
2022/10/29 11:30:09;;;;;;;12.88;3.78;;;18.60;99.90;;;;;;4856677;29;20010;-84
2022/10/29 11:33:14;;;;;;;14.68;4.32;;;18.70;99.90;;;;;;4865280;29;20061;-85
2022/10/29 11:35:56;;;;;;;8.70;3.53;;;18.80;99.90;;;;;;4834435;29;20129;-84
2022/10/29 11:38:41;;;;;;;13.30;4.13;;;18.90;99.90;;;;;;4862789;29;20068;-83
2022/10/29 11:41:37;;;;;;;10.88;3.13;;;19.00;99.90;;;;;;4862713;29;20058;-84
2022/10/29 11:44:10;;;;;;;12.75;3.60;;;19.10;99.90;;;;;;4861415;29;20414;-83
2022/10/29 11:47:08;;;;;;;13.52;4.88;;;19.20;99.90;;;;;;4893461;29;20093;-83
2022/10/29 11:49:43;;;;;;;8.20;2.95;;;19.20;99.90;;;;;;4859853;29;20058;-85
2022/10/29 11:52:31;;;;;;;16.52;3.42;;;19.30;99.90;;;;;;4855402;29;20050;-83
2022/10/29 11:55:19;;;;;;;9.25;3.30;;;19.30;99.90;;;;;;4850599;29;20056;-85
2022/10/29 11:58:05;;;;;;;13.02;3.85;;;19.40;99.90;;;;;;4853577;29;20521;-86
2022/10/29 12:00:59;;;;;;;18.63;3.97;;;19.50;99.90;;;;;;4851267;29;20046;-86
2022/10/29 12:03:45;;;;;;;11.88;3.92;;;19.50;99.90;;;;;;4865923;29;20056;-85
2022/10/29 12:06:12;;;;;;;15.90;5.38;;;19.60;99.90;;;;;;4883436;29;20077;-87
2022/10/29 12:09:32;;;;;;;15.10;4.43;;;19.60;99.90;;;;;;4858524;29;20055;-87
2022/10/29 12:12:13;;;;;;;10.25;3.60;;;19.70;99.90;;;;;;4852869;29;20052;-86
2022/10/29 12:14:42;;;;;;;10.90;3.80;;;19.70;99.90;;;;;;4882775;29;20422;-84
2022/10/29 12:17:40;;;;;;;11.95;3.70;;;19.80;99.90;;;;;;4857059;29;20468;-85
2022/10/29 12:20:33;;;;;;;18.10;3.47;;;19.80;99.90;;;;;;4840443;29;20050;-86
2022/10/29 12:23:34;;;;;;;13.02;3.72;;;19.70;99.90;;;;;;4849940;29;20140;-86
2022/10/29 12:26:08;;;;;;;13.15;3.80;;;19.70;99.90;;;;;;4854702;29;20046;-84
2022/10/29 12:29:13;;;;;;;17.05;4.90;;;19.70;99.90;;;;;;4856333;29;20057;-86
2022/10/29 12:31:49;;;;;;;14.18;3.75;;;19.70;99.90;;;;;;4835828;29;20056;-85
2022/10/29 12:34:27;;;;;;;14.45;3.92;;;19.70;99.90;;;;;;4868924;29;20132;-86
2022/10/29 12:37:31;;;;;;;12.77;5.07;;;19.70;99.90;;;;;;4853082;29;20068;-86
2022/10/29 12:40:30;;;;;;;14.23;4.28;;;19.70;99.90;;;;;;4833002;29;20057;-85
2022/10/29 12:43:05;;;;;;;13.73;3.70;;;19.80;99.90;;;;;;4849098;29;20054;-85
2022/10/29 12:45:53;;;;;;;13.95;4.20;;;19.80;99.90;;;;;;4856068;29;20635;-86
2022/10/29 12:49:18;;;;;;;15.18;3.83;;;19.80;99.90;;;;;;4855756;29;20134;-86
2022/10/29 12:51:57;;;;;;;17.42;4.78;;;19.90;99.90;;;;;;4841650;29;20054;-86
2022/10/29 12:54:43;;;;;;;10.00;3.70;;;20.00;99.90;;;;;;4856009;29;20567;-86
2022/10/29 12:57:13;;;;;;;11.82;3.95;;;20.00;99.90;;;;;;4848312;29;20141;-86
2022/10/29 12:59:41;;;;;;;9.38;3.88;;;20.10;99.90;;;;;;4849587;29;20058;-85
2022/10/29 13:02:20;;;;;;;15.55;4.20;;;20.20;99.90;;;;;;4885162;29;20132;-86
2022/10/29 13:05:05;;;;;;;9.35;3.40;;;20.20;99.90;;;;;;4851218;29;20102;-86
2022/10/29 13:07:33;;;;;;;7.05;3.33;;;20.30;99.90;;;;;;4856214;29;20053;-86
2022/10/29 13:10:28;;;;;;;13.13;4.55;;;20.40;99.90;;;;;;4855743;29;20053;-86
2022/10/29 13:12:57;;;;;;;12.32;4.03;;;20.40;99.90;;;;;;4841113;29;20582;-86
2022/10/29 13:15:29;;;;;;;25.37;3.63;;;20.50;99.90;;;;;;4859870;29;20058;-86
2022/10/29 13:18:01;;;;;;;12.07;4.03;;;20.50;99.90;;;;;;4852773;29;20050;-86
2022/10/29 13:20:41;;;;;;;14.07;4.10;;;20.50;99.90;;;;;;4845483;29;20049;-85
2022/10/29 13:23:20;;;;;;;16.02;3.72;;;20.60;99.90;;;;;;4856254;29;20151;-86
2022/10/29 13:25:48;;;;;;;11.60;3.70;;;20.60;99.90;;;;;;4850206;29;20141;-86
2022/10/29 13:28:15;;;;;;;12.05;4.05;;;20.70;99.90;;;;;;4853219;29;20530;-85
2022/10/29 13:30:50;;;;;;;15.98;4.07;;;20.70;99.90;;;;;;4864253;29;20077;-86
2022/10/29 13:33:26;;;;;;;14.32;3.88;;;20.70;99.90;;;;;;4879492;29;20045;-86
2022/10/29 13:35:56;;;;;;;9.57;3.80;;;20.70;99.90;;;;;;4875750;29;20069;-84
2022/10/29 13:38:43;;;;;;;9.10;3.35;;;20.80;99.90;;;;;;4873039;29;20053;-88
2022/10/29 13:41:40;;;;;;;8.35;3.55;;;20.80;99.90;;;;;;4875130;29;20041;-84
2022/10/29 13:44:12;;;;;;;13.45;4.18;;;20.80;99.90;;;;;;4879656;29;20119;-85
2022/10/29 13:47:00;;;;;;;8.60;3.22;;;20.80;99.90;;;;;;4879199;29;20077;-84
2022/10/29 13:49:36;;;;;;;14.75;3.55;;;20.90;99.90;;;;;;4876813;29;20217;-85
2022/10/29 13:52:12;;;;;;;12.85;3.42;;;20.90;99.90;;;;;;4870265;29;20042;-85
2022/10/29 13:54:59;;;;;;;13.38;3.90;;;20.90;99.90;;;;;;4875752;29;20057;-84
2022/10/29 13:57:34;;;;;;;15.25;3.63;;;20.80;99.90;;;;;;4880111;29;20054;-83
2022/10/29 14:00:06;;;;;;;12.57;4.10;;;20.90;99.90;;;;;;4877193;29;20045;-84
2022/10/29 14:02:37;;;;;;;12.25;4.32;;;20.90;99.90;;;;;;4877696;29;20060;-84
2022/10/29 14:05:15;;;;;;;14.18;4.18;;;20.90;99.90;;;;;;4870160;29;20038;-85
2022/10/29 14:07:59;;;;;;;10.10;3.65;;;21.00;99.90;;;;;;4879772;29;20037;-83
2022/10/29 14:10:41;;;;;;;9.75;3.92;;;21.20;99.90;;;;;;4874746;29;20033;-83
2022/10/29 14:13:23;;;;;;;18.27;3.38;;;21.30;99.90;;;;;;4876637;29;20096;-83
2022/10/29 14:16:01;;;;;;;17.67;4.30;;;21.40;99.90;;;;;;4885771;29;20061;-83
2022/10/29 14:18:36;;;;;;;12.48;3.58;;;21.50;99.90;;;;;;4874657;29;20053;-83
2022/10/29 14:21:06;;;;;;;14.93;4.82;;;21.50;99.90;;;;;;4870669;29;20078;-83
2022/10/29 14:23:33;;;;;;;12.77;4.63;;;21.50;99.90;;;;;;4874247;29;20053;-81
2022/10/29 14:26:02;;;;;;;16.90;4.82;;;21.50;99.90;;;;;;4871295;29;20125;-83
2022/10/29 14:28:31;;;;;;;13.05;4.70;;;21.50;99.90;;;;;;4880817;29;20129;-83
2022/10/29 14:31:10;;;;;;;17.10;5.03;;;21.50;99.90;;;;;;4871016;29;20257;-84
2022/10/29 14:33:39;;;;;;;20.35;4.78;;;21.50;99.90;;;;;;4867789;29;20060;-84
2022/10/29 14:36:30;;;;;;;15.95;5.18;;;21.50;99.90;;;;;;4873687;29;20084;-83
2022/10/29 14:39:38;;;;;;;13.95;5.50;;;21.40;99.90;;;;;;4871253;29;20076;-84
2022/10/29 14:42:31;;;;;;;16.25;5.47;;;21.40;99.90;;;;;;4866936;29;20053;-80
2022/10/29 14:45:04;;;;;;;13.38;4.90;;;21.40;99.90;;;;;;4875922;29;20064;-83
2022/10/29 14:47:34;;;;;;;15.15;5.07;;;21.30;99.90;;;;;;4881754;29;20130;-84
2022/10/29 14:50:16;;;;;;;13.02;4.22;;;21.30;99.90;;;;;;4874107;29;20050;-84
2022/10/29 14:52:46;;;;;;;10.63;4.60;;;21.20;99.90;;;;;;4884578;29;20109;-84
2022/10/29 14:55:25;;;;;;;12.50;4.80;;;21.20;99.90;;;;;;4871471;29;20056;-84
2022/10/29 14:58:10;;;;;;;13.20;4.72;;;21.20;99.90;;;;;;4873042;29;20133;-84
2022/10/29 15:00:46;;;;;;;17.45;5.35;;;21.10;99.90;;;;;;4861846;29;20073;-83
2022/10/29 15:03:19;;;;;;;12.85;5.53;;;21.10;99.90;;;;;;4860709;29;20058;-84
2022/10/29 15:05:47;;;;;;;20.63;7.35;;;21.00;99.90;;;;;;4858993;29;20393;-84
2022/10/29 15:08:18;;;;;;;16.70;6.03;;;21.00;99.90;;;;;;4859692;29;20054;-85
2022/10/29 15:10:50;;;;;;;14.43;6.15;;;21.00;99.90;;;;;;4859358;29;20081;-84
2022/10/29 15:13:26;;;;;;;19.15;8.27;;;20.90;99.90;;;;;;4863035;29;20061;-85
2022/10/29 15:16:08;;;;;;;15.50;6.63;;;20.80;99.90;;;;;;4861189;29;20053;-84
2022/10/29 15:18:36;;;;;;;14.75;7.47;;;20.80;99.90;;;;;;4854951;29;20053;-84
2022/10/29 15:21:04;;;;;;;16.92;6.63;;;20.70;99.90;;;;;;4857161;29;20052;-84
2022/10/29 15:23:54;;;;;;;14.40;6.65;;;20.70;99.90;;;;;;4857002;29;20053;-83
2022/10/29 15:26:21;;;;;;;;;;;20.60;99.90;;;;;;4861339;29;20115;-84
2022/10/29 15:28:51;;;;;;;26.67;10.60;;;20.50;99.90;;;;;;4858369;29;19963;-84
2022/10/29 15:31:23;;;;;;;23.48;8.57;;;20.50;99.90;;;;;;4863085;29;20149;-84
2022/10/29 15:33:52;;;;;;;16.25;5.45;;;20.40;99.90;;;;;;4857455;29;20060;-84
2022/10/29 15:36:19;;;;;;;15.95;6.97;;;20.40;99.90;;;;;;4862962;29;20057;-84
2022/10/29 15:38:46;;;;;;;13.73;5.65;;;20.30;99.90;;;;;;4856016;29;20109;-85
2022/10/29 15:41:18;;;;;;;16.40;6.57;;;20.20;99.90;;;;;;4849108;29;20144;-84
2022/10/29 15:43:54;;;;;;;17.65;6.70;;;20.10;99.90;;;;;;4855153;29;20050;-85
2022/10/29 15:46:26;;;;;;;15.38;5.15;;;20.10;99.90;;;;;;4856512;29;20140;-84
2022/10/29 15:48:53;;;;;;;17.92;7.38;;;20.00;99.90;;;;;;4857267;29;20156;-84
2022/10/29 15:51:25;;;;;;;10.38;5.38;;;19.90;99.90;;;;;;4855778;29;20580;-84
2022/10/29 15:54:00;;;;;;;15.65;4.70;;;19.90;99.90;;;;;;4852101;29;20057;-84
2022/10/29 15:56:28;;;;;;;12.82;5.07;;;19.80;99.90;;;;;;4854607;29;20062;-84
2022/10/29 15:58:57;;;;;;;13.93;5.32;;;19.70;99.90;;;;;;4872286;29;20417;-84
2022/10/29 16:01:23;;;;;;;11.48;4.45;;;19.60;99.90;;;;;;4849201;29;20054;-84
2022/10/29 16:03:50;;;;;;;13.05;4.68;;;19.50;99.90;;;;;;4862356;29;20121;-84
2022/10/29 16:06:17;;;;;;;12.68;4.95;;;19.50;99.90;;;;;;4857248;29;20072;-83
2022/10/29 16:08:50;;;;;;;10.10;4.85;;;19.40;99.90;;;;;;4856135;29;20048;-83
2022/10/29 16:11:21;;;;;;;10.48;4.22;;;19.30;99.90;;;;;;4855910;29;20064;-83
2022/10/29 16:13:49;;;;;;;12.68;5.40;;;19.20;99.90;;;;;;4859745;29;20494;-84
2022/10/29 16:16:22;;;;;;;15.32;5.25;;;19.20;99.90;;;;;;4852769;29;20064;-84
2022/10/29 16:18:50;;;;;;;16.52;5.10;;;19.10;99.90;;;;;;4857198;29;20527;-82
2022/10/29 16:21:23;;;;;;;12.55;5.85;;;19.00;99.90;;;;;;4863164;29;20050;-83
2022/10/29 16:23:51;;;;;;;10.75;4.93;;;18.90;99.90;;;;;;4867138;29;20338;-84
2022/10/29 16:26:23;;;;;;;14.35;4.53;;;18.90;99.90;;;;;;4863361;29;20575;-84
2022/10/29 16:28:53;;;;;;;12.10;4.47;;;18.80;99.90;;;;;;4861943;29;20081;-85
2022/10/29 16:31:25;;;;;;;14.35;4.30;;;18.70;99.90;;;;;;4863880;29;20072;-84
2022/10/29 16:33:55;;;;;;;14.32;5.10;;;18.70;99.90;;;;;;4864709;29;20487;-84
2022/10/29 16:36:22;;;;;;;13.95;5.10;;;18.60;99.90;;;;;;4863980;29;20495;-84
2022/10/29 16:38:49;;;;;;;14.63;4.90;;;18.60;99.90;;;;;;4868250;29;20152;-84
2022/10/29 16:41:17;;;;;;;11.20;4.50;;;18.50;99.90;;;;;;4872736;29;20038;-84
2022/10/29 16:43:45;;;;;;;8.77;4.18;;;18.40;99.90;;;;;;4868482;29;20105;-85
2022/10/29 16:46:12;;;;;;;13.25;3.60;;;18.40;99.90;;;;;;4861137;29;20086;-83
2022/10/29 16:48:39;;;;;;;10.98;4.07;;;18.30;99.90;;;;;;4860685;29;20049;-84
2022/10/29 16:51:06;;;;;;;10.77;3.30;;;18.20;99.90;;;;;;4855971;29;20580;-84
2022/10/29 16:53:33;;;;;;;14.55;3.97;;;18.20;99.90;;;;;;4863502;29;20137;-84
2022/10/29 16:56:00;;;;;;;11.75;3.70;;;18.10;99.90;;;;;;4865722;29;20118;-83
2022/10/29 16:58:27;;;;;;;15.63;3.58;;;18.10;99.90;;;;;;4865341;29;20053;-83
2022/10/29 17:01:01;;;;;;;11.25;3.28;;;18.00;99.90;;;;;;4868235;29;20045;-85
2022/10/29 17:03:28;;;;;;;12.30;3.90;;;18.00;99.90;;;;;;4874701;29;20054;-83
2022/10/29 17:06:00;;;;;;;15.77;4.80;;;18.00;99.90;;;;;;4878738;29;20053;-84
2022/10/29 17:08:32;;;;;;;12.02;4.40;;;17.90;99.90;;;;;;4874729;29;20175;-84
2022/10/29 17:11:04;;;;;;;17.30;3.75;;;17.80;99.90;;;;;;4868825;29;20153;-84
2022/10/29 17:13:33;;;;;;;7.65;3.33;;;17.80;99.90;;;;;;4858725;29;20091;-83
2022/10/29 17:15:59;;;;;;;17.13;4.28;;;17.70;99.90;;;;;;4883577;29;20061;-84
2022/10/29 17:18:26;;;;;;;10.07;3.97;;;17.70;99.90;;;;;;4862137;29;20054;-85
2022/10/29 17:20:57;;;;;;;14.80;3.67;;;17.60;99.90;;;;;;4865299;29;20060;-83
2022/10/29 17:23:24;;;;;;;12.20;4.35;;;17.50;99.90;;;;;;4857316;29;20053;-84
2022/10/29 17:25:55;;;;;;;17.23;3.78;;;17.50;99.90;;;;;;4851934;29;20050;-84
2022/10/29 17:28:23;;;;;;;15.77;3.92;;;17.50;99.90;;;;;;4861733;29;20453;-84
2022/10/29 17:30:50;;;;;;;10.10;2.92;;;17.60;99.90;;;;;;4862236;29;20077;-84
2022/10/29 17:33:18;;;;;;;15.88;3.92;;;17.40;99.90;;;;;;4859044;29;20065;-84
2022/10/29 17:35:44;;;;;;;10.77;4.03;;;17.40;99.90;;;;;;4861083;29;20045;-84
2022/10/29 17:38:11;;;;;;;14.82;3.30;;;17.40;99.90;;;;;;4859402;29;20136;-84
2022/10/29 17:40:38;;;;;;;15.65;3.95;;;17.40;99.90;;;;;;4865173;29;20061;-85
2022/10/29 17:43:05;;;;;;;8.73;3.22;;;17.30;99.90;;;;;;4858545;29;20050;-85
2022/10/29 17:45:32;;;;;;;16.30;3.95;;;17.20;99.90;;;;;;4854123;29;20117;-85
2022/10/29 17:47:58;;;;;;;11.70;3.17;;;17.30;99.90;;;;;;4861373;29;20056;-84
2022/10/29 17:50:26;;;;;;;13.10;3.47;;;17.10;99.90;;;;;;4862309;29;20513;-82
2022/10/29 17:52:53;;;;;;;9.57;3.30;;;17.10;99.90;;;;;;4860172;29;20077;-84
2022/10/29 17:55:21;;;;;;;9.68;3.63;;;17.10;99.90;;;;;;4873646;29;20554;-84
2022/10/29 17:57:48;;;;;;;9.23;3.40;;;17.00;99.90;;;;;;4860948;29;20126;-84
2022/10/29 18:00:15;;;;;;;15.38;5.45;;;17.00;99.90;;;;;;4864714;29;20468;-84
2022/10/29 18:02:42;;;;;;;12.77;4.75;;;17.00;99.90;;;;;;4860968;29;20081;-83
2022/10/29 18:05:08;;;;;;;15.75;4.82;;;17.00;99.90;;;;;;4856508;29;20509;-83
2022/10/29 18:07:35;;;;;;;11.02;4.32;;;16.90;99.90;;;;;;4853434;29;20058;-84
2022/10/29 18:10:02;;;;;;;11.57;3.90;;;16.90;99.90;;;;;;4866536;29;20057;-84
2022/10/29 18:12:29;;;;;;;13.25;4.18;;;16.80;99.90;;;;;;4855694;29;20532;-83
2022/10/29 18:14:55;;;;;;;15.73;3.60;;;16.80;99.90;;;;;;4863140;29;20063;-84
2022/10/29 18:17:22;;;;;;;10.85;4.93;;;16.80;99.90;;;;;;4857445;29;20049;-83
2022/10/29 18:19:49;;;;;;;18.60;5.68;;;16.80;99.90;;;;;;4871100;29;20433;-84
2022/10/29 18:22:16;;;;;;;10.82;4.32;;;16.80;99.90;;;;;;4864624;29;20478;-83
2022/10/29 18:24:42;;;;;;;12.60;4.85;;;16.70;99.90;;;;;;4857622;29;20133;-84
2022/10/29 18:27:09;;;;;;;12.35;4.70;;;16.70;99.90;;;;;;4863773;29;20360;-83
2022/10/29 18:29:36;;;;;;;12.82;4.70;;;16.70;99.90;;;;;;4863502;29;20132;-84
2022/10/29 18:32:03;;;;;;;16.08;5.18;;;16.60;99.90;;;;;;4863629;29;20053;-84
2022/10/29 18:34:31;;;;;;;14.98;4.57;;;16.60;99.90;;;;;;4860463;29;20057;-82
2022/10/29 18:36:57;;;;;;;17.23;5.03;;;16.60;99.90;;;;;;4853681;29;20492;-84
2022/10/29 18:39:24;;;;;;;15.48;4.90;;;16.60;99.90;;;;;;4858394;29;20053;-83
2022/10/29 18:41:51;;;;;;;19.23;5.28;;;16.50;99.90;;;;;;4858705;29;20113;-84
2022/10/29 18:44:17;;;;;;;17.20;5.65;;;16.50;99.90;;;;;;4874696;29;20533;-83
2022/10/29 18:46:44;;;;;;;15.80;4.93;;;16.50;99.90;;;;;;4856724;29;20054;-84
2022/10/29 18:49:14;;;;;;;14.93;5.30;;;16.40;99.90;;;;;;4857050;29;20057;-84
2022/10/29 18:51:41;;;;;;;15.20;4.72;;;16.40;99.90;;;;;;4862294;29;20141;-84
2022/10/29 18:54:10;;;;;;;12.35;5.20;;;16.40;99.90;;;;;;4862496;29;20049;-83
2022/10/29 18:56:37;;;;;;;11.10;4.95;;;16.40;99.90;;;;;;4859224;29;20061;-83
2022/10/29 18:59:04;;;;;;;12.25;5.05;;;16.40;99.90;;;;;;4856974;29;20064;-84
2022/10/29 19:01:32;;;;;;;10.23;4.43;;;16.40;99.90;;;;;;4850478;29;20060;-82
2022/10/29 19:04:02;;;;;;;10.68;4.57;;;16.30;99.90;;;;;;4881755;29;20077;-84
2022/10/29 19:06:30;;;;;;;13.40;4.80;;;16.30;99.90;;;;;;4860427;29;20141;-84
2022/10/29 19:09:09;;;;;;;11.35;4.53;;;16.30;99.90;;;;;;4861238;29;20057;-84
2022/10/29 19:11:36;;;;;;;21.52;7.53;;;16.30;99.90;;;;;;4852138;29;20084;-84
2022/10/29 19:14:05;;;;;;;22.73;7.35;;;16.20;99.90;;;;;;4854921;29;20125;-82
2022/10/29 19:16:32;;;;;;;24.63;11.18;;;16.20;99.90;;;;;;4853015;29;20084;-83
2022/10/29 19:19:01;;;;;;;33.95;17.58;;;16.20;99.90;;;;;;4851429;29;20058;-83
2022/10/29 19:21:29;;;;;;;27.40;13.27;;;16.20;99.90;;;;;;4861689;29;20080;-84
2022/10/29 19:23:57;;;;;;;22.00;8.07;;;16.20;99.90;;;;;;4859276;29;20509;-83
2022/10/29 19:26:27;;;;;;;15.55;7.95;;;16.10;99.90;;;;;;4862889;29;20049;-84
2022/10/29 19:28:54;;;;;;;18.00;7.97;;;16.10;99.90;;;;;;4857151;29;20080;-83
2022/10/29 19:31:28;;;;;;;12.55;6.55;;;16.00;99.90;;;;;;4864033;29;20515;-84
2022/10/29 19:33:59;;;;;;;12.68;6.80;;;16.00;99.90;;;;;;4859763;29;20072;-84
2022/10/29 19:36:28;;;;;;;20.80;6.00;;;16.00;99.90;;;;;;4857190;29;20106;-84
2022/10/29 19:39:01;;;;;;;12.02;5.47;;;15.90;99.90;;;;;;4860916;29;20049;-84
2022/10/29 19:41:31;;;;;;;12.55;4.75;;;15.90;99.90;;;;;;4862317;29;20111;-85
2022/10/29 19:44:06;;;;;;;16.42;6.68;;;15.90;99.90;;;;;;4854922;29;20077;-85
2022/10/29 19:46:59;;;;;;;15.60;6.20;;;15.80;99.90;;;;;;4853841;29;20081;-82
2022/10/29 19:49:28;;;;;;;12.70;6.38;;;15.80;99.90;;;;;;4887304;29;20045;-85
2022/10/29 19:51:56;;;;;;;14.32;5.93;;;15.80;99.90;;;;;;4862091;29;20144;-84
2022/10/29 19:54:23;;;;;;;20.25;5.35;;;15.70;99.90;;;;;;4859903;29;20054;-84
2022/10/29 19:56:54;;;;;;;13.57;5.05;;;15.80;99.90;;;;;;4862726;29;20136;-85
2022/10/29 19:59:23;;;;;;;11.35;5.15;;;15.70;99.90;;;;;;4865964;29;20531;-85
2022/10/29 20:01:50;;;;;;;16.77;4.68;;;15.70;99.90;;;;;;4861952;29;20109;-86
2022/10/29 20:04:17;;;;;;;16.65;4.50;;;15.60;99.90;;;;;;4862842;29;20064;-85
2022/10/29 20:06:44;;;;;;;14.27;4.78;;;15.60;99.90;;;;;;4859846;29;20046;-84
2022/10/29 20:09:10;;;;;;;14.82;4.55;;;15.60;99.90;;;;;;4862627;29;20122;-84
2022/10/29 20:11:37;;;;;;;17.48;4.88;;;15.60;99.90;;;;;;4869647;29;20141;-85
2022/10/29 20:14:04;;;;;;;12.85;4.95;;;15.50;99.90;;;;;;4860013;29;20518;-85
2022/10/29 20:16:31;;;;;;;13.77;5.25;;;15.50;99.90;;;;;;4865407;29;20053;-84
2022/10/29 20:18:58;;;;;;;14.85;5.28;;;15.50;99.90;;;;;;4860131;29;20129;-86
2022/10/29 20:21:24;;;;;;;11.20;4.45;;;15.50;99.90;;;;;;4863794;29;20091;-86